sensor_id;sensor_type;location;lat;lon;timestamp;P1;durP1;ratioP1;P2;durP2;ratioP2
84431;SDS011;74658;51.736;7.038;2024-03-07T00:02:09;101.10;;;30.80;;
84431;SDS011;74658;51.736;7.038;2024-03-07T00:07:09;102.40;;;30.60;;
84431;SDS011;74658;51.736;7.038;2024-03-07T00:12:10;92.20;;;29.20;;
84431;SDS011;74658;51.736;7.038;2024-03-07T00:17:11;103.40;;;31.40;;
84431;SDS011;74658;51.736;7.038;2024-03-07T00:22:11;95.10;;;29.00;;
84431;SDS011;74658;51.736;7.038;2024-03-07T00:27:12;95.10;;;29.30;;
84431;SDS011;74658;51.736;7.038;2024-03-07T00:32:12;94.60;;;30.60;;
84431;SDS011;74658;51.736;7.038;2024-03-07T00:37:13;96.80;;;30.20;;
84431;SDS011;74658;51.736;7.038;2024-03-07T00:42:14;95.80;;;29.90;;
84431;SDS011;74658;51.736;7.038;2024-03-07T00:47:14;93.80;;;29.40;;
84431;SDS011;74658;51.736;7.038;2024-03-07T00:52:15;100.50;;;30.10;;
84431;SDS011;74658;51.736;7.038;2024-03-07T00:57:15;98.00;;;29.90;;
84431;SDS011;74658;51.736;7.038;2024-03-07T01:02:16;89.70;;;27.20;;
84431;SDS011;74658;51.736;7.038;2024-03-07T01:07:16;93.50;;;29.40;;
84431;SDS011;74658;51.736;7.038;2024-03-07T01:12:17;92.90;;;30.30;;
84431;SDS011;74658;51.736;7.038;2024-03-07T01:17:18;87.90;;;28.10;;
84431;SDS011;74658;51.736;7.038;2024-03-07T01:22:18;95.80;;;30.70;;
84431;SDS011;74658;51.736;7.038;2024-03-07T01:27:19;88.70;;;29.30;;
84431;SDS011;74658;51.736;7.038;2024-03-07T01:32:19;92.50;;;28.30;;
84431;SDS011;74658;51.736;7.038;2024-03-07T01:37:20;93.10;;;29.60;;
84431;SDS011;74658;51.736;7.038;2024-03-07T01:42:21;98.20;;;31.00;;
84431;SDS011;74658;51.736;7.038;2024-03-07T01:47:21;95.10;;;29.50;;
84431;SDS011;74658;51.736;7.038;2024-03-07T01:52:22;96.60;;;30.50;;
84431;SDS011;74658;51.736;7.038;2024-03-07T01:57:22;97.70;;;31.30;;
84431;SDS011;74658;51.736;7.038;2024-03-07T02:02:23;114.40;;;34.80;;
84431;SDS011;74658;51.736;7.038;2024-03-07T02:07:24;112.50;;;34.10;;
84431;SDS011;74658;51.736;7.038;2024-03-07T02:12:24;117.40;;;34.90;;
84431;SDS011;74658;51.736;7.038;2024-03-07T02:17:25;125.60;;;37.10;;
84431;SDS011;74658;51.736;7.038;2024-03-07T02:22:25;115.20;;;34.60;;
84431;SDS011;74658;51.736;7.038;2024-03-07T02:27:26;108.10;;;34.10;;
84431;SDS011;74658;51.736;7.038;2024-03-07T02:32:27;117.80;;;34.30;;
84431;SDS011;74658;51.736;7.038;2024-03-07T02:37:27;113.10;;;34.00;;
84431;SDS011;74658;51.736;7.038;2024-03-07T02:42:28;107.50;;;33.40;;
84431;SDS011;74658;51.736;7.038;2024-03-07T02:47:39;113.70;;;33.60;;
84431;SDS011;74658;51.736;7.038;2024-03-07T02:52:29;112.10;;;33.90;;
84431;SDS011;74658;51.736;7.038;2024-03-07T02:57:30;106.50;;;32.10;;
84431;SDS011;74658;51.736;7.038;2024-03-07T03:02:30;108.10;;;32.40;;
84431;SDS011;74658;51.736;7.038;2024-03-07T03:07:31;110.10;;;32.50;;
84431;SDS011;74658;51.736;7.038;2024-03-07T03:12:32;101.00;;;31.60;;
84431;SDS011;74658;51.736;7.038;2024-03-07T03:17:32;98.50;;;30.70;;
84431;SDS011;74658;51.736;7.038;2024-03-07T03:22:33;103.20;;;32.60;;
84431;SDS011;74658;51.736;7.038;2024-03-07T03:27:33;99.80;;;32.10;;
84431;SDS011;74658;51.736;7.038;2024-03-07T03:32:34;104.30;;;31.60;;
84431;SDS011;74658;51.736;7.038;2024-03-07T03:37:35;105.00;;;32.20;;
84431;SDS011;74658;51.736;7.038;2024-03-07T03:42:35;93.70;;;30.60;;
84431;SDS011;74658;51.736;7.038;2024-03-07T03:47:36;94.50;;;30.00;;
84431;SDS011;74658;51.736;7.038;2024-03-07T03:52:37;96.80;;;29.60;;
84431;SDS011;74658;51.736;7.038;2024-03-07T03:57:38;93.00;;;29.30;;
84431;SDS011;74658;51.736;7.038;2024-03-07T04:02:38;90.40;;;29.50;;
84431;SDS011;74658;51.736;7.038;2024-03-07T04:07:39;93.40;;;28.00;;
84431;SDS011;74658;51.736;7.038;2024-03-07T04:12:40;97.60;;;29.90;;
84431;SDS011;74658;51.736;7.038;2024-03-07T04:17:40;96.60;;;29.40;;
84431;SDS011;74658;51.736;7.038;2024-03-07T04:22:41;90.30;;;28.90;;
84431;SDS011;74658;51.736;7.038;2024-03-07T04:27:41;92.90;;;28.50;;
84431;SDS011;74658;51.736;7.038;2024-03-07T04:32:42;95.00;;;29.90;;
84431;SDS011;74658;51.736;7.038;2024-03-07T04:37:42;94.00;;;29.10;;
84431;SDS011;74658;51.736;7.038;2024-03-07T04:42:43;93.60;;;28.90;;
84431;SDS011;74658;51.736;7.038;2024-03-07T04:47:44;95.20;;;30.10;;
84431;SDS011;74658;51.736;7.038;2024-03-07T04:52:44;99.70;;;28.20;;
84431;SDS011;74658;51.736;7.038;2024-03-07T04:57:47;87.50;;;27.60;;
84431;SDS011;74658;51.736;7.038;2024-03-07T05:02:46;86.00;;;28.00;;
84431;SDS011;74658;51.736;7.038;2024-03-07T05:07:47;83.70;;;27.30;;
84431;SDS011;74658;51.736;7.038;2024-03-07T05:12:47;82.60;;;27.00;;
84431;SDS011;74658;51.736;7.038;2024-03-07T05:17:48;92.30;;;27.70;;
84431;SDS011;74658;51.736;7.038;2024-03-07T05:22:48;85.50;;;26.50;;
84431;SDS011;74658;51.736;7.038;2024-03-07T05:27:49;89.40;;;26.10;;
84431;SDS011;74658;51.736;7.038;2024-03-07T05:32:50;79.90;;;25.80;;
84431;SDS011;74658;51.736;7.038;2024-03-07T05:37:50;90.10;;;26.70;;
84431;SDS011;74658;51.736;7.038;2024-03-07T05:42:51;87.60;;;27.20;;
84431;SDS011;74658;51.736;7.038;2024-03-07T05:47:52;92.70;;;27.80;;
84431;SDS011;74658;51.736;7.038;2024-03-07T05:52:52;85.80;;;27.60;;
84431;SDS011;74658;51.736;7.038;2024-03-07T05:57:53;87.60;;;26.90;;
84431;SDS011;74658;51.736;7.038;2024-03-07T06:02:54;89.90;;;29.00;;
84431;SDS011;74658;51.736;7.038;2024-03-07T06:07:54;91.40;;;27.90;;
84431;SDS011;74658;51.736;7.038;2024-03-07T06:12:55;85.80;;;28.10;;
84431;SDS011;74658;51.736;7.038;2024-03-07T06:17:55;85.20;;;27.00;;
84431;SDS011;74658;51.736;7.038;2024-03-07T06:23:02;77.80;;;26.30;;
84431;SDS011;74658;51.736;7.038;2024-03-07T06:27:58;76.50;;;26.60;;
84431;SDS011;74658;51.736;7.038;2024-03-07T06:33:02;72.30;;;25.90;;
84431;SDS011;74658;51.736;7.038;2024-03-07T06:38:00;71.20;;;25.00;;
84431;SDS011;74658;51.736;7.038;2024-03-07T06:43:01;73.80;;;25.70;;
84431;SDS011;74658;51.736;7.038;2024-03-07T06:48:01;72.90;;;25.60;;
84431;SDS011;74658;51.736;7.038;2024-03-07T06:53:02;67.20;;;25.10;;
84431;SDS011;74658;51.736;7.038;2024-03-07T06:58:03;66.50;;;24.70;;
84431;SDS011;74658;51.736;7.038;2024-03-07T07:03:03;59.30;;;24.00;;
84431;SDS011;74658;51.736;7.038;2024-03-07T07:08:04;51.50;;;21.50;;
84431;SDS011;74658;51.736;7.038;2024-03-07T07:13:04;48.60;;;21.10;;
84431;SDS011;74658;51.736;7.038;2024-03-07T07:18:05;45.80;;;20.80;;
84431;SDS011;74658;51.736;7.038;2024-03-07T07:23:06;44.00;;;20.00;;
84431;SDS011;74658;51.736;7.038;2024-03-07T07:28:06;42.90;;;19.00;;
84431;SDS011;74658;51.736;7.038;2024-03-07T07:33:07;43.70;;;19.90;;
84431;SDS011;74658;51.736;7.038;2024-03-07T07:38:07;41.90;;;19.50;;
84431;SDS011;74658;51.736;7.038;2024-03-07T07:43:08;42.10;;;19.40;;
84431;SDS011;74658;51.736;7.038;2024-03-07T07:48:08;37.70;;;18.40;;
84431;SDS011;74658;51.736;7.038;2024-03-07T07:53:09;39.90;;;19.50;;
84431;SDS011;74658;51.736;7.038;2024-03-07T07:58:10;39.90;;;18.10;;
84431;SDS011;74658;51.736;7.038;2024-03-07T08:03:10;37.70;;;17.00;;
84431;SDS011;74658;51.736;7.038;2024-03-07T08:08:11;38.00;;;18.20;;
84431;SDS011;74658;51.736;7.038;2024-03-07T08:13:12;38.70;;;17.90;;
84431;SDS011;74658;51.736;7.038;2024-03-07T08:18:12;38.50;;;18.50;;
84431;SDS011;74658;51.736;7.038;2024-03-07T08:23:13;39.10;;;17.90;;
84431;SDS011;74658;51.736;7.038;2024-03-07T08:28:14;39.00;;;17.90;;
84431;SDS011;74658;51.736;7.038;2024-03-07T08:33:14;37.40;;;17.10;;
84431;SDS011;74658;51.736;7.038;2024-03-07T08:38:15;35.50;;;15.00;;
84431;SDS011;74658;51.736;7.038;2024-03-07T08:43:15;38.30;;;17.40;;
84431;SDS011;74658;51.736;7.038;2024-03-07T08:48:16;38.90;;;18.80;;
84431;SDS011;74658;51.736;7.038;2024-03-07T08:53:17;39.30;;;18.70;;
84431;SDS011;74658;51.736;7.038;2024-03-07T08:58:17;39.60;;;19.20;;
84431;SDS011;74658;51.736;7.038;2024-03-07T09:03:18;36.70;;;18.00;;
84431;SDS011;74658;51.736;7.038;2024-03-07T09:08:18;36.70;;;16.70;;
84431;SDS011;74658;51.736;7.038;2024-03-07T09:13:19;40.60;;;18.60;;
84431;SDS011;74658;51.736;7.038;2024-03-07T09:18:20;37.70;;;17.20;;
84431;SDS011;74658;51.736;7.038;2024-03-07T09:23:20;36.00;;;16.60;;
84431;SDS011;74658;51.736;7.038;2024-03-07T09:28:21;36.20;;;16.10;;
84431;SDS011;74658;51.736;7.038;2024-03-07T09:33:21;35.60;;;16.40;;
84431;SDS011;74658;51.736;7.038;2024-03-07T09:38:22;34.60;;;15.90;;
84431;SDS011;74658;51.736;7.038;2024-03-07T09:43:23;35.30;;;16.10;;
84431;SDS011;74658;51.736;7.038;2024-03-07T09:48:23;34.60;;;16.10;;
84431;SDS011;74658;51.736;7.038;2024-03-07T09:53:24;35.50;;;16.40;;
84431;SDS011;74658;51.736;7.038;2024-03-07T09:58:25;32.90;;;15.10;;
84431;SDS011;74658;51.736;7.038;2024-03-07T10:03:25;34.30;;;15.60;;
84431;SDS011;74658;51.736;7.038;2024-03-07T10:08:26;36.10;;;17.20;;
84431;SDS011;74658;51.736;7.038;2024-03-07T10:13:26;34.00;;;16.00;;
84431;SDS011;74658;51.736;7.038;2024-03-07T10:18:27;38.10;;;17.70;;
84431;SDS011;74658;51.736;7.038;2024-03-07T10:23:28;33.90;;;16.30;;
84431;SDS011;74658;51.736;7.038;2024-03-07T10:28:28;33.50;;;15.40;;
84431;SDS011;74658;51.736;7.038;2024-03-07T10:33:29;35.00;;;15.30;;
84431;SDS011;74658;51.736;7.038;2024-03-07T10:38:30;34.20;;;17.20;;
84431;SDS011;74658;51.736;7.038;2024-03-07T10:43:30;34.90;;;15.80;;
84431;SDS011;74658;51.736;7.038;2024-03-07T10:48:36;34.60;;;16.50;;
84431;SDS011;74658;51.736;7.038;2024-03-07T10:53:34;32.10;;;17.60;;
84431;SDS011;74658;51.736;7.038;2024-03-07T10:58:37;32.30;;;16.00;;
84431;SDS011;74658;51.736;7.038;2024-03-07T11:03:33;33.90;;;16.30;;
84431;SDS011;74658;51.736;7.038;2024-03-07T11:08:34;36.50;;;18.00;;
84431;SDS011;74658;51.736;7.038;2024-03-07T11:13:35;33.10;;;16.00;;
84431;SDS011;74658;51.736;7.038;2024-03-07T11:18:35;34.40;;;16.00;;
84431;SDS011;74658;51.736;7.038;2024-03-07T11:23:36;31.10;;;15.90;;
84431;SDS011;74658;51.736;7.038;2024-03-07T11:28:37;34.90;;;16.20;;
84431;SDS011;74658;51.736;7.038;2024-03-07T11:33:37;34.80;;;18.80;;
84431;SDS011;74658;51.736;7.038;2024-03-07T11:38:38;34.10;;;16.10;;
84431;SDS011;74658;51.736;7.038;2024-03-07T11:43:38;34.00;;;17.60;;
84431;SDS011;74658;51.736;7.038;2024-03-07T11:48:39;33.90;;;16.70;;
84431;SDS011;74658;51.736;7.038;2024-03-07T11:53:39;35.00;;;17.20;;
84431;SDS011;74658;51.736;7.038;2024-03-07T11:58:40;33.20;;;16.30;;
84431;SDS011;74658;51.736;7.038;2024-03-07T12:03:41;33.50;;;16.70;;
84431;SDS011;74658;51.736;7.038;2024-03-07T12:08:41;32.80;;;17.50;;
84431;SDS011;74658;51.736;7.038;2024-03-07T12:13:42;34.10;;;17.60;;
84431;SDS011;74658;51.736;7.038;2024-03-07T12:18:43;34.80;;;17.70;;
84431;SDS011;74658;51.736;7.038;2024-03-07T12:23:43;33.60;;;17.30;;
84431;SDS011;74658;51.736;7.038;2024-03-07T12:28:44;32.70;;;17.40;;
84431;SDS011;74658;51.736;7.038;2024-03-07T12:33:44;33.50;;;16.70;;
84431;SDS011;74658;51.736;7.038;2024-03-07T12:38:45;35.70;;;18.80;;
84431;SDS011;74658;51.736;7.038;2024-03-07T12:43:48;32.80;;;16.00;;
84431;SDS011;74658;51.736;7.038;2024-03-07T12:48:46;35.80;;;17.80;;
84431;SDS011;74658;51.736;7.038;2024-03-07T12:53:47;30.80;;;15.50;;
84431;SDS011;74658;51.736;7.038;2024-03-07T12:58:47;31.80;;;16.10;;
84431;SDS011;74658;51.736;7.038;2024-03-07T13:03:48;32.80;;;16.20;;
84431;SDS011;74658;51.736;7.038;2024-03-07T13:08:49;34.60;;;18.00;;
84431;SDS011;74658;51.736;7.038;2024-03-07T13:13:49;28.40;;;14.70;;
84431;SDS011;74658;51.736;7.038;2024-03-07T13:18:50;29.40;;;14.60;;
84431;SDS011;74658;51.736;7.038;2024-03-07T13:23:51;27.40;;;14.60;;
84431;SDS011;74658;51.736;7.038;2024-03-07T13:28:51;26.30;;;14.00;;
84431;SDS011;74658;51.736;7.038;2024-03-07T13:33:52;26.80;;;13.40;;
84431;SDS011;74658;51.736;7.038;2024-03-07T13:38:53;26.40;;;14.40;;
84431;SDS011;74658;51.736;7.038;2024-03-07T13:43:53;26.90;;;13.60;;
84431;SDS011;74658;51.736;7.038;2024-03-07T13:48:54;23.90;;;13.50;;
84431;SDS011;74658;51.736;7.038;2024-03-07T13:53:54;26.10;;;14.00;;
84431;SDS011;74658;51.736;7.038;2024-03-07T13:59:10;26.00;;;14.40;;
84431;SDS011;74658;51.736;7.038;2024-03-07T14:04:05;25.70;;;13.10;;
84431;SDS011;74658;51.736;7.038;2024-03-07T14:09:25;26.90;;;13.20;;
84431;SDS011;74658;51.736;7.038;2024-03-07T14:14:05;27.80;;;13.50;;
84431;SDS011;74658;51.736;7.038;2024-03-07T14:19:14;26.40;;;13.90;;
84431;SDS011;74658;51.736;7.038;2024-03-07T14:24:08;24.30;;;12.30;;
84431;SDS011;74658;51.736;7.038;2024-03-07T14:29:03;24.30;;;12.00;;
84431;SDS011;74658;51.736;7.038;2024-03-07T14:34:03;24.70;;;12.70;;
84431;SDS011;74658;51.736;7.038;2024-03-07T14:39:02;23.30;;;12.10;;
84431;SDS011;74658;51.736;7.038;2024-03-07T14:44:03;24.80;;;12.50;;
84431;SDS011;74658;51.736;7.038;2024-03-07T14:49:03;26.60;;;12.90;;
84431;SDS011;74658;51.736;7.038;2024-03-07T14:54:04;25.70;;;13.00;;
84431;SDS011;74658;51.736;7.038;2024-03-07T14:59:05;27.60;;;13.30;;
84431;SDS011;74658;51.736;7.038;2024-03-07T15:04:05;27.90;;;12.50;;
84431;SDS011;74658;51.736;7.038;2024-03-07T15:09:07;26.90;;;13.40;;
84431;SDS011;74658;51.736;7.038;2024-03-07T15:14:07;31.50;;;15.00;;
84431;SDS011;74658;51.736;7.038;2024-03-07T15:19:08;35.00;;;14.60;;
84431;SDS011;74658;51.736;7.038;2024-03-07T15:24:08;32.80;;;14.70;;
84431;SDS011;74658;51.736;7.038;2024-03-07T15:29:09;32.10;;;14.90;;
84431;SDS011;74658;51.736;7.038;2024-03-07T15:34:09;35.00;;;15.40;;
84431;SDS011;74658;51.736;7.038;2024-03-07T15:39:10;35.10;;;15.90;;
84431;SDS011;74658;51.736;7.038;2024-03-07T15:44:10;36.60;;;15.60;;
84431;SDS011;74658;51.736;7.038;2024-03-07T15:49:11;32.90;;;15.30;;
84431;SDS011;74658;51.736;7.038;2024-03-07T15:54:11;39.40;;;16.50;;
84431;SDS011;74658;51.736;7.038;2024-03-07T15:59:12;39.20;;;16.50;;
84431;SDS011;74658;51.736;7.038;2024-03-07T16:04:13;35.90;;;15.40;;
84431;SDS011;74658;51.736;7.038;2024-03-07T16:09:13;39.20;;;16.70;;
84431;SDS011;74658;51.736;7.038;2024-03-07T16:14:14;34.00;;;16.10;;
84431;SDS011;74658;51.736;7.038;2024-03-07T16:19:15;35.70;;;15.80;;
84431;SDS011;74658;51.736;7.038;2024-03-07T16:24:15;40.50;;;16.50;;
84431;SDS011;74658;51.736;7.038;2024-03-07T16:29:16;37.70;;;16.70;;
84431;SDS011;74658;51.736;7.038;2024-03-07T16:34:16;40.20;;;16.50;;
84431;SDS011;74658;51.736;7.038;2024-03-07T16:39:17;40.20;;;16.80;;
84431;SDS011;74658;51.736;7.038;2024-03-07T16:44:18;44.50;;;17.90;;
84431;SDS011;74658;51.736;7.038;2024-03-07T16:49:18;45.20;;;18.60;;
84431;SDS011;74658;51.736;7.038;2024-03-07T16:54:19;39.20;;;16.10;;
84431;SDS011;74658;51.736;7.038;2024-03-07T16:59:19;44.80;;;17.50;;
84431;SDS011;74658;51.736;7.038;2024-03-07T17:04:20;40.40;;;16.70;;
84431;SDS011;74658;51.736;7.038;2024-03-07T17:09:21;42.10;;;16.40;;
84431;SDS011;74658;51.736;7.038;2024-03-07T17:14:21;45.10;;;17.20;;
84431;SDS011;74658;51.736;7.038;2024-03-07T17:19:22;45.00;;;18.50;;
84431;SDS011;74658;51.736;7.038;2024-03-07T17:24:22;43.20;;;16.20;;
84431;SDS011;74658;51.736;7.038;2024-03-07T17:29:23;43.20;;;16.30;;
84431;SDS011;74658;51.736;7.038;2024-03-07T17:34:24;49.80;;;18.20;;
84431;SDS011;74658;51.736;7.038;2024-03-07T17:39:24;46.60;;;17.40;;
84431;SDS011;74658;51.736;7.038;2024-03-07T17:44:25;46.40;;;18.00;;
84431;SDS011;74658;51.736;7.038;2024-03-07T17:49:25;49.80;;;18.30;;
84431;SDS011;74658;51.736;7.038;2024-03-07T17:54:26;49.20;;;17.50;;
84431;SDS011;74658;51.736;7.038;2024-03-07T17:59:27;51.10;;;18.50;;
84431;SDS011;74658;51.736;7.038;2024-03-07T18:04:27;49.50;;;18.80;;
84431;SDS011;74658;51.736;7.038;2024-03-07T18:09:28;48.10;;;18.40;;
84431;SDS011;74658;51.736;7.038;2024-03-07T18:14:29;53.90;;;19.70;;
84431;SDS011;74658;51.736;7.038;2024-03-07T18:19:30;49.60;;;19.20;;
84431;SDS011;74658;51.736;7.038;2024-03-07T18:24:30;54.30;;;20.30;;
84431;SDS011;74658;51.736;7.038;2024-03-07T18:29:30;50.50;;;18.40;;
84431;SDS011;74658;51.736;7.038;2024-03-07T18:34:31;48.20;;;19.10;;
84431;SDS011;74658;51.736;7.038;2024-03-07T18:39:32;57.80;;;21.00;;
84431;SDS011;74658;51.736;7.038;2024-03-07T18:44:32;49.10;;;19.80;;
84431;SDS011;74658;51.736;7.038;2024-03-07T18:49:34;51.60;;;18.20;;
84431;SDS011;74658;51.736;7.038;2024-03-07T18:54:33;51.00;;;19.50;;
84431;SDS011;74658;51.736;7.038;2024-03-07T18:59:34;52.40;;;19.80;;
84431;SDS011;74658;51.736;7.038;2024-03-07T19:04:34;52.10;;;20.60;;
84431;SDS011;74658;51.736;7.038;2024-03-07T19:09:35;46.20;;;18.30;;
84431;SDS011;74658;51.736;7.038;2024-03-07T19:14:36;47.00;;;19.20;;
84431;SDS011;74658;51.736;7.038;2024-03-07T19:19:36;46.70;;;18.60;;
84431;SDS011;74658;51.736;7.038;2024-03-07T19:24:37;49.00;;;19.00;;
84431;SDS011;74658;51.736;7.038;2024-03-07T19:29:37;45.20;;;18.00;;
84431;SDS011;74658;51.736;7.038;2024-03-07T19:34:38;47.60;;;18.00;;
84431;SDS011;74658;51.736;7.038;2024-03-07T19:39:39;44.30;;;17.60;;
84431;SDS011;74658;51.736;7.038;2024-03-07T19:44:39;36.90;;;17.20;;
84431;SDS011;74658;51.736;7.038;2024-03-07T19:49:40;37.10;;;15.80;;
84431;SDS011;74658;51.736;7.038;2024-03-07T19:54:40;37.70;;;16.40;;
84431;SDS011;74658;51.736;7.038;2024-03-07T19:59:41;41.00;;;15.90;;
84431;SDS011;74658;51.736;7.038;2024-03-07T20:04:42;35.30;;;16.10;;
84431;SDS011;74658;51.736;7.038;2024-03-07T20:09:42;38.30;;;16.90;;
84431;SDS011;74658;51.736;7.038;2024-03-07T20:14:46;38.30;;;14.80;;
84431;SDS011;74658;51.736;7.038;2024-03-07T20:19:43;34.60;;;14.90;;
84431;SDS011;74658;51.736;7.038;2024-03-07T20:24:44;35.80;;;15.90;;
84431;SDS011;74658;51.736;7.038;2024-03-07T20:29:44;32.00;;;14.70;;
84431;SDS011;74658;51.736;7.038;2024-03-07T20:34:45;31.10;;;14.60;;
84431;SDS011;74658;51.736;7.038;2024-03-07T20:39:46;34.90;;;14.60;;
84431;SDS011;74658;51.736;7.038;2024-03-07T20:44:46;33.40;;;14.60;;
84431;SDS011;74658;51.736;7.038;2024-03-07T20:49:47;28.20;;;13.50;;
84431;SDS011;74658;51.736;7.038;2024-03-07T20:54:47;33.60;;;14.60;;
84431;SDS011;74658;51.736;7.038;2024-03-07T20:59:48;30.00;;;14.10;;
84431;SDS011;74658;51.736;7.038;2024-03-07T21:04:49;32.90;;;14.90;;
84431;SDS011;74658;51.736;7.038;2024-03-07T21:09:49;29.80;;;13.90;;
84431;SDS011;74658;51.736;7.038;2024-03-07T21:14:50;31.30;;;13.90;;
84431;SDS011;74658;51.736;7.038;2024-03-07T21:19:50;31.70;;;14.00;;
84431;SDS011;74658;51.736;7.038;2024-03-07T21:24:51;30.40;;;14.00;;
84431;SDS011;74658;51.736;7.038;2024-03-07T21:29:51;31.10;;;14.90;;
84431;SDS011;74658;51.736;7.038;2024-03-07T21:34:52;30.60;;;14.00;;
84431;SDS011;74658;51.736;7.038;2024-03-07T21:39:53;30.80;;;14.50;;
84431;SDS011;74658;51.736;7.038;2024-03-07T21:44:53;29.70;;;14.40;;
84431;SDS011;74658;51.736;7.038;2024-03-07T21:49:54;31.30;;;14.70;;
84431;SDS011;74658;51.736;7.038;2024-03-07T21:54:55;28.80;;;13.50;;
84431;SDS011;74658;51.736;7.038;2024-03-07T21:59:55;32.00;;;14.50;;
84431;SDS011;74658;51.736;7.038;2024-03-07T22:04:56;29.80;;;15.00;;
84431;SDS011;74658;51.736;7.038;2024-03-07T22:09:56;33.50;;;15.70;;
84431;SDS011;74658;51.736;7.038;2024-03-07T22:14:57;29.80;;;14.10;;
84431;SDS011;74658;51.736;7.038;2024-03-07T22:19:58;30.40;;;15.20;;
84431;SDS011;74658;51.736;7.038;2024-03-07T22:24:58;34.90;;;15.30;;
84431;SDS011;74658;51.736;7.038;2024-03-07T22:29:59;31.60;;;15.20;;
84431;SDS011;74658;51.736;7.038;2024-03-07T22:34:59;34.00;;;15.00;;
84431;SDS011;74658;51.736;7.038;2024-03-07T22:40:00;29.00;;;14.50;;
84431;SDS011;74658;51.736;7.038;2024-03-07T22:45:00;31.20;;;15.00;;
84431;SDS011;74658;51.736;7.038;2024-03-07T22:50:01;33.10;;;15.70;;
84431;SDS011;74658;51.736;7.038;2024-03-07T22:55:02;31.70;;;15.30;;
84431;SDS011;74658;51.736;7.038;2024-03-07T23:00:03;31.20;;;15.40;;
84431;SDS011;74658;51.736;7.038;2024-03-07T23:00:03;31.20;;;15.40;;
84431;SDS011;74658;51.736;7.038;2024-03-07T23:05:03;29.80;;;14.20;;
84431;SDS011;74658;51.736;7.038;2024-03-07T23:10:04;31.30;;;16.00;;
84431;SDS011;74658;51.736;7.038;2024-03-07T23:15:05;30.80;;;15.10;;
84431;SDS011;74658;51.736;7.038;2024-03-07T23:20:05;29.60;;;13.60;;
84431;SDS011;74658;51.736;7.038;2024-03-07T23:25:05;32.60;;;15.70;;
84431;SDS011;74658;51.736;7.038;2024-03-07T23:30:06;33.80;;;15.80;;
84431;SDS011;74658;51.736;7.038;2024-03-07T23:35:07;34.90;;;16.70;;
84431;SDS011;74658;51.736;7.038;2024-03-07T23:40:07;31.50;;;16.10;;
84431;SDS011;74658;51.736;7.038;2024-03-07T23:45:08;32.30;;;16.00;;
84431;SDS011;74658;51.736;7.038;2024-03-07T23:50:08;32.40;;;16.50;;
84431;SDS011;74658;51.736;7.038;2024-03-07T23:55:09;33.50;;;15.20;;
